Time;durP1;ratioP1;P1;durP2;ratioP2;P2;SDS_P1;SDS_P2;PMS_P1;PMS_P2;Temp;Humidity;BMP_temperature;BMP_pressure;BME280_temperature;BME280_humidity;BME280_pressure;Samples;Min_cycle;Max_cycle;Signal;HPM_P1;HPM_P2
2024/01/02 00:00:11;;;;;;;3.55;1.02;;;;;;;;;;521135;28;2120;-75
2024/01/02 00:00:27;;;;;;;3.57;0.97;;;;;;;;;;521652;28;1430;-75
2024/01/02 00:00:42;;;;;;;4.73;1.00;;;;;;;;;;522297;28;1364;-75
2024/01/02 00:00:57;;;;;;;5.20;1.10;;;;;;;;;;520837;28;1423;-74
2024/01/02 00:01:13;;;;;;;4.47;1.00;;;;;;;;;;521759;28;1152;-74
2024/01/02 00:01:28;;;;;;;4.00;1.10;;;;;;;;;;522961;28;1535;-74
2024/01/02 00:01:43;;;;;;;3.40;1.07;;;;;;;;;;523294;28;1426;-75
2024/01/02 00:02:01;;;;;;;3.47;1.00;;;;;;;;;;522956;28;2241;-75
2024/01/02 00:02:16;;;;;;;4.45;1.10;;;;;;;;;;523133;28;1207;-75
2024/01/02 00:02:31;;;;;;;4.07;1.17;;;;;;;;;;522902;28;1364;-75
2024/01/02 00:02:47;;;;;;;3.30;1.03;;;;;;;;;;523224;28;1342;-76
2024/01/02 00:03:02;;;;;;;4.32;1.13;;;;;;;;;;522543;28;1887;-75
2024/01/02 00:03:17;;;;;;;4.23;1.20;;;;;;;;;;520909;28;1172;-76
2024/01/02 00:03:33;;;;;;;4.53;1.10;;;;;;;;;;521181;28;2025;-76
2024/01/02 00:03:48;;;;;;;5.28;1.25;;;;;;;;;;521443;28;1349;-76
2024/01/02 00:04:03;;;;;;;4.07;1.20;;;;;;;;;;519383;28;1589;-76
2024/01/02 00:04:19;;;;;;;4.37;1.03;;;;;;;;;;521079;28;1368;-75
2024/01/02 00:04:34;;;;;;;4.30;1.10;;;;;;;;;;520991;28;1421;-75
2024/01/02 00:04:49;;;;;;;4.10;1.30;;;;;;;;;;521156;28;1384;-76
2024/01/02 00:05:05;;;;;;;4.40;1.30;;;;;;;;;;520406;28;1895;-75
2024/01/02 00:05:20;;;;;;;3.60;1.10;;;;;;;;;;523315;28;1450;-76
2024/01/02 00:05:36;;;;;;;4.13;1.20;;;;;;;;;;523099;28;1492;-76
2024/01/02 00:05:51;;;;;;;4.43;1.10;;;;;;;;;;523430;28;1395;-75
2024/01/02 00:06:06;;;;;;;3.73;1.10;;;;;;;;;;524815;28;1347;-75
2024/01/02 00:06:22;;;;;;;4.13;1.13;;;;;;;;;;525406;28;1362;-75
2024/01/02 00:06:37;;;;;;;4.75;1.08;;;;;;;;;;525014;28;1421;-75
2024/01/02 00:06:52;;;;;;;4.73;1.10;;;;;;;;;;522587;28;2309;-75
2024/01/02 00:07:08;;;;;;;4.47;1.20;;;;;;;;;;522837;28;1419;-75
2024/01/02 00:07:23;;;;;;;4.13;1.13;;;;;;;;;;523000;28;1418;-76
2024/01/02 00:07:39;;;;;;;4.00;1.10;;;;;;;;;;521011;28;1411;-76
2024/01/02 00:07:54;;;;;;;4.55;1.15;;;;;;;;;;520845;28;1997;-75
2024/01/02 00:08:10;;;;;;;4.30;1.00;;;;;;;;;;520934;28;1340;-75
2024/01/02 00:08:25;;;;;;;3.77;1.00;;;;;;;;;;521082;28;1871;-75
2024/01/02 00:08:41;;;;;;;3.60;1.00;;;;;;;;;;519021;28;1555;-76
2024/01/02 00:08:56;;;;;;;3.60;1.10;;;;;;;;;;521020;28;1357;-75
2024/01/02 00:09:11;;;;;;;4.50;1.10;;;;;;;;;;522948;28;1401;-75
2024/01/02 00:09:27;;;;;;;4.50;0.95;;;;;;;;;;522997;28;1280;-75
2024/01/02 00:09:42;;;;;;;5.10;1.10;;;;;;;;;;523181;28;1399;-75
2024/01/02 00:09:57;;;;;;;5.33;1.10;;;;;;;;;;523208;28;2055;-75
2024/01/02 00:10:13;;;;;;;4.90;1.00;;;;;;;;;;522217;28;1157;-76
2024/01/02 00:10:29;;;;;;;4.50;0.95;;;;;;;;;;521739;28;1403;-76
2024/01/02 00:10:44;;;;;;;3.73;0.97;;;;;;;;;;524406;28;1437;-76
2024/01/02 00:10:59;;;;;;;4.17;1.10;;;;;;;;;;524140;28;1398;-76
2024/01/02 00:11:15;;;;;;;4.30;1.20;;;;;;;;;;522441;28;1485;-76
2024/01/02 00:11:30;;;;;;;3.37;1.00;;;;;;;;;;523050;28;1360;-76
2024/01/02 00:11:45;;;;;;;3.40;0.97;;;;;;;;;;522575;28;2416;-75
2024/01/02 00:12:01;;;;;;;4.28;1.10;;;;;;;;;;522280;28;1911;-75
2024/01/02 00:12:16;;;;;;;4.47;1.00;;;;;;;;;;522322;28;1260;-75
2024/01/02 00:12:31;;;;;;;3.93;0.90;;;;;;;;;;522327;28;1191;-75
2024/01/02 00:12:47;;;;;;;3.42;1.00;;;;;;;;;;522323;28;1407;-75
2024/01/02 00:13:02;;;;;;;3.37;1.00;;;;;;;;;;522360;28;1260;-77
2024/01/02 00:13:17;;;;;;;3.80;0.90;;;;;;;;;;520848;28;2050;-77
2024/01/02 00:13:33;;;;;;;3.95;1.00;;;;;;;;;;521196;28;1499;-76
2024/01/02 00:13:48;;;;;;;3.30;0.97;;;;;;;;;;521242;28;1388;-77
2024/01/02 00:14:03;;;;;;;3.97;0.90;;;;;;;;;;520946;28;1360;-76
2024/01/02 00:14:19;;;;;;;4.43;0.90;;;;;;;;;;521097;28;1447;-75
2024/01/02 00:14:34;;;;;;;4.20;1.00;;;;;;;;;;521426;28;1413;-75
2024/01/02 00:14:51;;;;;;;3.83;1.10;;;;;;;;;;523702;28;1794;-75
2024/01/02 00:15:07;;;;;;;3.00;0.80;;;;;;;;;;522433;28;1658;-75
2024/01/02 00:15:22;;;;;;;3.20;0.83;;;;;;;;;;524663;28;1461;-75
2024/01/02 00:15:38;;;;;;;3.17;1.00;;;;;;;;;;524508;28;1432;-76
2024/01/02 00:15:53;;;;;;;3.47;1.02;;;;;;;;;;525243;28;1698;-75
2024/01/02 00:16:08;;;;;;;3.73;1.00;;;;;;;;;;521403;28;1693;-75
2024/01/02 00:16:23;;;;;;;2.75;0.90;;;;;;;;;;521606;28;1765;-75
2024/01/02 00:16:39;;;;;;;2.97;0.90;;;;;;;;;;523012;28;1441;-76
2024/01/02 00:16:54;;;;;;;3.23;0.90;;;;;;;;;;522604;28;1375;-75
2024/01/02 00:17:09;;;;;;;3.50;0.90;;;;;;;;;;522480;28;1233;-76
2024/01/02 00:17:25;;;;;;;2.97;1.00;;;;;;;;;;522501;28;1363;-75
2024/01/02 00:17:40;;;;;;;2.73;0.90;;;;;;;;;;523065;28;1371;-75
2024/01/02 00:17:55;;;;;;;3.67;1.10;;;;;;;;;;520883;28;1454;-75
2024/01/02 00:18:11;;;;;;;3.70;1.23;;;;;;;;;;522169;28;2337;-76
2024/01/02 00:18:26;;;;;;;3.23;1.13;;;;;;;;;;522843;28;1377;-76
2024/01/02 00:18:41;;;;;;;3.10;1.03;;;;;;;;;;523255;28;1475;-76
2024/01/02 00:18:56;;;;;;;3.25;1.00;;;;;;;;;;523184;28;1411;-75
2024/01/02 00:19:13;;;;;;;3.40;1.00;;;;;;;;;;522698;28;1458;-75
2024/01/02 00:19:29;;;;;;;4.57;1.10;;;;;;;;;;521133;28;1392;-75
2024/01/02 00:19:44;;;;;;;4.47;1.00;;;;;;;;;;521088;28;2350;-76
2024/01/02 00:19:59;;;;;;;3.73;1.00;;;;;;;;;;521266;28;1439;-75
2024/01/02 00:20:14;;;;;;;4.25;1.00;;;;;;;;;;520872;28;1377;-76
2024/01/02 00:20:30;;;;;;;5.37;0.97;;;;;;;;;;525443;28;1395;-75
2024/01/02 00:20:45;;;;;;;6.03;1.00;;;;;;;;;;523177;28;1458;-76
2024/01/02 00:21:01;;;;;;;3.90;0.93;;;;;;;;;;522837;28;1469;-77
2024/01/02 00:21:16;;;;;;;3.93;1.00;;;;;;;;;;522232;28;2115;-75
2024/01/02 00:21:31;;;;;;;4.90;1.00;;;;;;;;;;523311;28;1348;-75
2024/01/02 00:21:47;;;;;;;4.10;0.90;;;;;;;;;;522678;28;1498;-75
2024/01/02 00:22:03;;;;;;;3.43;0.90;;;;;;;;;;523217;28;1324;-75
2024/01/02 00:22:18;;;;;;;3.30;0.82;;;;;;;;;;522629;28;1107;-75
2024/01/02 00:22:33;;;;;;;3.85;0.90;;;;;;;;;;523653;28;1214;-75
2024/01/02 00:22:48;;;;;;;4.60;1.00;;;;;;;;;;525540;28;1402;-75
2024/01/02 00:23:04;;;;;;;5.67;1.10;;;;;;;;;;525382;28;2391;-76
2024/01/02 00:23:19;;;;;;;5.43;1.00;;;;;;;;;;525188;28;1548;-76
2024/01/02 00:23:34;;;;;;;4.30;1.00;;;;;;;;;;524264;28;1443;-76
2024/01/02 00:23:50;;;;;;;3.20;0.83;;;;;;;;;;524002;28;1437;-76
2024/01/02 00:24:05;;;;;;;2.60;0.70;;;;;;;;;;524880;28;1378;-75
2024/01/02 00:24:21;;;;;;;3.05;0.88;;;;;;;;;;524788;28;1343;-75
2024/01/02 00:24:36;;;;;;;3.77;1.00;;;;;;;;;;522578;28;2998;-75
2024/01/02 00:24:51;;;;;;;4.35;1.00;;;;;;;;;;523241;28;1359;-75
2024/01/02 00:25:07;;;;;;;4.50;0.83;;;;;;;;;;523062;28;1407;-75
2024/01/02 00:25:22;;;;;;;3.38;0.73;;;;;;;;;;522029;28;1714;-75
2024/01/02 00:25:38;;;;;;;3.17;0.87;;;;;;;;;;523095;28;1434;-75
2024/01/02 00:25:53;;;;;;;3.70;0.90;;;;;;;;;;523194;28;1376;-75
2024/01/02 00:26:08;;;;;;;4.03;0.90;;;;;;;;;;522068;28;1390;-75
2024/01/02 00:26:24;;;;;;;3.67;1.07;;;;;;;;;;521024;28;2299;-76
2024/01/02 00:26:40;;;;;;;4.05;1.10;;;;;;;;;;523351;28;1595;-76
2024/01/02 00:26:55;;;;;;;3.83;0.97;;;;;;;;;;523816;28;1379;-78
2024/01/02 00:27:10;;;;;;;3.47;0.90;;;;;;;;;;520965;28;1413;-78
2024/01/02 00:27:26;;;;;;;3.27;0.87;;;;;;;;;;521241;28;1356;-76
2024/01/02 00:27:41;;;;;;;2.77;0.83;;;;;;;;;;521946;28;1570;-77
2024/01/02 00:27:57;;;;;;;2.40;0.80;;;;;;;;;;521494;28;1971;-76
2024/01/02 00:28:12;;;;;;;2.45;0.80;;;;;;;;;;522736;28;1520;-77
2024/01/02 00:28:28;;;;;;;2.47;0.80;;;;;;;;;;520245;28;1343;-76
2024/01/02 00:28:43;;;;;;;3.33;0.90;;;;;;;;;;519838;28;1426;-76
2024/01/02 00:28:58;;;;;;;5.20;1.08;;;;;;;;;;520150;28;1361;-76
2024/01/02 00:29:13;;;;;;;5.87;1.10;;;;;;;;;;521739;28;1181;-76
2024/01/02 00:29:29;;;;;;;4.30;0.90;;;;;;;;;;520731;28;1897;-75
2024/01/02 00:29:44;;;;;;;2.90;0.80;;;;;;;;;;518781;28;2402;-76
2024/01/02 00:29:59;;;;;;;2.83;0.80;;;;;;;;;;518575;28;1364;-75
2024/01/02 00:30:15;;;;;;;3.23;0.80;;;;;;;;;;519152;28;1538;-76
2024/01/02 00:30:32;;;;;;;3.90;0.90;;;;;;;;;;520580;28;1382;-76
2024/01/02 00:30:47;;;;;;;3.55;0.95;;;;;;;;;;521151;28;1230;-76
2024/01/02 00:31:03;;;;;;;3.10;0.87;;;;;;;;;;521019;28;1368;-76
2024/01/02 00:31:19;;;;;;;2.95;0.80;;;;;;;;;;521127;28;1994;-76
2024/01/02 00:31:34;;;;;;;2.65;0.73;;;;;;;;;;521543;28;1337;-76
2024/01/02 00:31:49;;;;;;;3.27;0.90;;;;;;;;;;523289;28;1351;-77
2024/01/02 00:32:05;;;;;;;3.97;1.00;;;;;;;;;;524853;28;1445;-76
2024/01/02 00:32:20;;;;;;;4.70;1.05;;;;;;;;;;524464;28;1402;-76
2024/01/02 00:32:36;;;;;;;3.93;1.00;;;;;;;;;;525330;28;1418;-75
2024/01/02 00:32:51;;;;;;;2.70;0.98;;;;;;;;;;525034;28;1861;-75
2024/01/02 00:33:07;;;;;;;2.73;0.90;;;;;;;;;;524749;28;1236;-75
2024/01/02 00:33:22;;;;;;;2.88;0.88;;;;;;;;;;525330;28;1355;-76
2024/01/02 00:33:37;;;;;;;3.43;1.00;;;;;;;;;;524896;28;1359;-76
2024/01/02 00:33:52;;;;;;;3.40;0.93;;;;;;;;;;524073;28;1774;-75
2024/01/02 00:34:08;;;;;;;2.90;0.85;;;;;;;;;;520662;28;1286;-76
2024/01/02 00:34:25;;;;;;;2.90;0.87;;;;;;;;;;520915;28;1916;-76
2024/01/02 00:34:40;;;;;;;3.13;0.80;;;;;;;;;;521263;28;1551;-77
2024/01/02 00:34:57;;;;;;;2.37;0.70;;;;;;;;;;520172;28;1457;-76
2024/01/02 00:35:12;;;;;;;2.63;0.82;;;;;;;;;;521463;28;1338;-75
2024/01/02 00:35:27;;;;;;;3.07;0.90;;;;;;;;;;522359;28;1388;-76
2024/01/02 00:35:43;;;;;;;2.55;0.75;;;;;;;;;;522039;28;1387;-77
2024/01/02 00:35:58;;;;;;;2.67;0.90;;;;;;;;;;522403;28;1787;-75
2024/01/02 00:36:14;;;;;;;3.23;1.10;;;;;;;;;;523688;28;1412;-76
2024/01/02 00:36:29;;;;;;;2.75;0.93;;;;;;;;;;523071;28;1351;-75
2024/01/02 00:36:44;;;;;;;2.07;0.80;;;;;;;;;;523631;28;1379;-75
2024/01/02 00:36:59;;;;;;;2.27;0.90;;;;;;;;;;524802;28;1390;-77
2024/01/02 00:37:15;;;;;;;3.55;0.90;;;;;;;;;;525310;28;1298;-75
2024/01/02 00:37:30;;;;;;;4.33;0.80;;;;;;;;;;524956;28;1418;-76
2024/01/02 00:37:45;;;;;;;4.03;0.80;;;;;;;;;;522116;28;2016;-75
2024/01/02 00:38:01;;;;;;;4.13;0.90;;;;;;;;;;522910;28;1221;-77
2024/01/02 00:38:17;;;;;;;3.70;1.00;;;;;;;;;;523097;28;1317;-75
2024/01/02 00:38:33;;;;;;;3.95;1.00;;;;;;;;;;520822;28;1447;-76
2024/01/02 00:38:48;;;;;;;4.53;1.00;;;;;;;;;;518855;28;1465;-76
2024/01/02 00:39:03;;;;;;;3.67;0.90;;;;;;;;;;518741;28;1460;-76
2024/01/02 00:39:20;;;;;;;3.83;0.88;;;;;;;;;;518918;28;1971;-76
2024/01/02 00:39:35;;;;;;;3.50;0.80;;;;;;;;;;518877;28;1462;-77
2024/01/02 00:39:50;;;;;;;2.57;0.73;;;;;;;;;;520941;28;1417;-77
2024/01/02 00:40:06;;;;;;;2.67;0.83;;;;;;;;;;520972;28;1420;-77
2024/01/02 00:40:22;;;;;;;3.65;1.00;;;;;;;;;;523079;28;1442;-76
2024/01/02 00:40:37;;;;;;;3.97;0.98;;;;;;;;;;524409;28;1151;-76
2024/01/02 00:40:52;;;;;;;2.63;0.77;;;;;;;;;;524496;28;1970;-76
2024/01/02 00:41:08;;;;;;;2.20;0.80;;;;;;;;;;525018;28;1445;-75
2024/01/02 00:41:23;;;;;;;2.80;0.90;;;;;;;;;;524015;28;1351;-75
2024/01/02 00:41:39;;;;;;;2.90;0.80;;;;;;;;;;523229;28;1387;-75
2024/01/02 00:41:54;;;;;;;3.70;0.83;;;;;;;;;;521778;28;1276;-75
2024/01/02 00:42:09;;;;;;;3.50;0.90;;;;;;;;;;521836;28;1355;-76
2024/01/02 00:42:24;;;;;;;3.15;0.90;;;;;;;;;;522819;28;2035;-75
2024/01/02 00:42:40;;;;;;;3.07;0.93;;;;;;;;;;521997;28;1328;-75
2024/01/02 00:42:56;;;;;;;2.57;0.97;;;;;;;;;;522767;28;1422;-76
2024/01/02 00:43:11;;;;;;;2.95;0.85;;;;;;;;;;522359;28;1384;-76
2024/01/02 00:43:26;;;;;;;2.80;0.80;;;;;;;;;;523361;28;1478;-75
2024/01/02 00:43:41;;;;;;;2.63;0.80;;;;;;;;;;525389;28;1354;-75
2024/01/02 00:43:57;;;;;;;2.77;0.83;;;;;;;;;;525341;28;1441;-75
2024/01/02 00:44:12;;;;;;;2.97;0.83;;;;;;;;;;522441;28;2202;-75
2024/01/02 00:44:27;;;;;;;2.80;0.90;;;;;;;;;;523438;28;1229;-75
2024/01/02 00:44:43;;;;;;;2.53;0.83;;;;;;;;;;522615;28;1364;-76
2024/01/02 00:44:59;;;;;;;2.30;0.80;;;;;;;;;;522878;28;1387;-75
2024/01/02 00:45:14;;;;;;;2.50;0.82;;;;;;;;;;521857;28;1816;-76
2024/01/02 00:45:30;;;;;;;2.70;0.73;;;;;;;;;;521679;28;1296;-77
2024/01/02 00:45:45;;;;;;;3.10;0.80;;;;;;;;;;520972;28;2322;-76
2024/01/02 00:46:01;;;;;;;4.17;0.87;;;;;;;;;;516968;28;1390;-75
2024/01/02 00:46:16;;;;;;;3.78;0.82;;;;;;;;;;518665;28;1428;-76
2024/01/02 00:46:31;;;;;;;3.13;0.82;;;;;;;;;;521031;28;1376;-76
2024/01/02 00:46:47;;;;;;;3.53;0.90;;;;;;;;;;520612;28;1479;-76
2024/01/02 00:47:02;;;;;;;3.10;0.90;;;;;;;;;;520909;28;1356;-75
2024/01/02 00:47:21;;;;;;;2.17;0.77;;;;;;;;;;520569;28;1973;-75
2024/01/02 00:47:36;;;;;;;2.42;0.73;;;;;;;;;;523208;28;1227;-75
2024/01/02 00:47:54;;;;;;;3.37;0.87;;;;;;;;;;520211;28;2196;-76
2024/01/02 00:48:09;;;;;;;4.38;0.90;;;;;;;;;;521707;28;1312;-76
2024/01/02 00:48:24;;;;;;;3.72;0.80;;;;;;;;;;522948;28;1815;-75
2024/01/02 00:48:39;;;;;;;2.97;0.80;;;;;;;;;;523254;28;1364;-76
2024/01/02 00:48:55;;;;;;;3.63;0.90;;;;;;;;;;522936;28;2175;-76
2024/01/02 00:49:10;;;;;;;2.95;0.80;;;;;;;;;;522971;28;1341;-76
2024/01/02 00:49:25;;;;;;;2.90;0.80;;;;;;;;;;523136;28;1395;-76
2024/01/02 00:49:41;;;;;;;3.10;0.90;;;;;;;;;;521578;28;1364;-75
2024/01/02 00:49:56;;;;;;;2.43;0.80;;;;;;;;;;521061;28;1475;-76
2024/01/02 00:50:12;;;;;;;2.72;0.80;;;;;;;;;;520967;28;1185;-76
2024/01/02 00:50:27;;;;;;;3.40;0.90;;;;;;;;;;521003;28;1463;-76
2024/01/02 00:50:43;;;;;;;3.22;0.80;;;;;;;;;;521953;28;2314;-75
2024/01/02 00:51:00;;;;;;;2.33;0.80;;;;;;;;;;522032;28;1483;-75
2024/01/02 00:51:16;;;;;;;2.05;0.73;;;;;;;;;;519223;28;1389;-75
2024/01/02 00:51:31;;;;;;;3.10;0.80;;;;;;;;;;519723;28;1396;-75
2024/01/02 00:51:46;;;;;;;3.70;0.80;;;;;;;;;;521187;28;1487;-75
2024/01/02 00:52:02;;;;;;;3.23;1.00;;;;;;;;;;520380;28;1423;-75
2024/01/02 00:52:17;;;;;;;3.23;0.90;;;;;;;;;;519271;28;2336;-75
2024/01/02 00:52:33;;;;;;;2.95;0.75;;;;;;;;;;519867;28;1789;-75
2024/01/02 00:52:49;;;;;;;2.58;0.70;;;;;;;;;;520430;28;1424;-76
2024/01/02 00:53:05;;;;;;;3.07;0.70;;;;;;;;;;520851;28;1436;-75
2024/01/02 00:53:20;;;;;;;3.80;0.70;;;;;;;;;;522051;28;1719;-75
2024/01/02 00:53:35;;;;;;;3.92;0.90;;;;;;;;;;521022;28;1316;-75
2024/01/02 00:53:51;;;;;;;2.87;0.80;;;;;;;;;;520892;28;1980;-76
2024/01/02 00:54:06;;;;;;;3.10;0.70;;;;;;;;;;522761;28;1508;-76
2024/01/02 00:54:21;;;;;;;3.25;0.70;;;;;;;;;;522512;28;1436;-75
2024/01/02 00:54:36;;;;;;;3.53;0.83;;;;;;;;;;522397;28;1416;-75
2024/01/02 00:54:52;;;;;;;3.67;0.87;;;;;;;;;;522745;28;1458;-76
2024/01/02 00:55:07;;;;;;;2.40;0.70;;;;;;;;;;522730;28;1465;-76
2024/01/02 00:55:23;;;;;;;2.20;0.67;;;;;;;;;;523241;28;1269;-74
2024/01/02 00:55:38;;;;;;;3.25;0.80;;;;;;;;;;522284;28;2396;-75
2024/01/02 00:55:53;;;;;;;3.03;0.80;;;;;;;;;;522784;28;1383;-75
2024/01/02 00:56:09;;;;;;;4.80;0.90;;;;;;;;;;522123;28;1471;-75
2024/01/02 00:56:24;;;;;;;4.60;0.85;;;;;;;;;;522350;28;1434;-76
2024/01/02 00:56:40;;;;;;;2.87;0.70;;;;;;;;;;521718;28;1566;-75
2024/01/02 00:56:55;;;;;;;2.47;0.70;;;;;;;;;;521627;28;1482;-76
2024/01/02 00:57:11;;;;;;;1.27;0.70;;;;;;;;;;521421;28;1972;-76
2024/01/02 00:57:27;;;;;;;1.55;0.60;;;;;;;;;;522275;28;1524;-75
2024/01/02 00:57:42;;;;;;;3.13;0.73;;;;;;;;;;524070;28;1471;-75
2024/01/02 00:57:57;;;;;;;2.97;0.77;;;;;;;;;;524195;28;1371;-75
2024/01/02 00:58:12;;;;;;;2.47;0.70;;;;;;;;;;524264;28;1374;-75
2024/01/02 00:58:28;;;;;;;3.60;0.90;;;;;;;;;;522222;28;1356;-76
2024/01/02 00:58:43;;;;;;;3.78;1.02;;;;;;;;;;521911;28;2150;-76
2024/01/02 00:58:58;;;;;;;3.30;0.90;;;;;;;;;;520159;28;1364;-75
2024/01/02 00:59:14;;;;;;;2.77;0.70;;;;;;;;;;520808;28;1302;-75
2024/01/02 00:59:29;;;;;;;2.13;0.60;;;;;;;;;;520335;28;1381;-75
2024/01/02 00:59:45;;;;;;;2.13;0.70;;;;;;;;;;520793;28;1384;-75
2024/01/02 01:00:00;;;;;;;2.55;0.65;;;;;;;;;;520174;28;1432;-75
2024/01/02 01:00:16;;;;;;;2.40;0.70;;;;;;;;;;520719;28;2215;-75
2024/01/02 01:00:31;;;;;;;2.20;0.70;;;;;;;;;;521371;28;1845;-75
2024/01/02 01:00:46;;;;;;;2.40;0.70;;;;;;;;;;522333;28;1206;-75
2024/01/02 01:01:02;;;;;;;2.80;0.70;;;;;;;;;;521762;28;1551;-75
2024/01/02 01:01:18;;;;;;;2.80;0.70;;;;;;;;;;522131;28;1308;-75
2024/01/02 01:01:33;;;;;;;2.30;0.70;;;;;;;;;;520413;28;1361;-76
2024/01/02 01:01:49;;;;;;;2.55;0.80;;;;;;;;;;517799;28;1435;-75
2024/01/02 01:02:04;;;;;;;2.50;0.80;;;;;;;;;;519909;28;2069;-75
2024/01/02 01:02:19;;;;;;;2.63;0.73;;;;;;;;;;520643;28;1492;-75
2024/01/02 01:02:35;;;;;;;3.30;0.80;;;;;;;;;;520838;28;1458;-75
2024/01/02 01:02:50;;;;;;;2.83;0.80;;;;;;;;;;520166;28;1514;-75
2024/01/02 01:03:05;;;;;;;1.93;0.70;;;;;;;;;;522202;28;1510;-75
2024/01/02 01:03:21;;;;;;;1.95;0.70;;;;;;;;;;524549;28;1548;-75
2024/01/02 01:03:37;;;;;;;2.00;0.70;;;;;;;;;;524789;28;1453;-75
2024/01/02 01:03:53;;;;;;;2.03;0.73;;;;;;;;;;524562;28;1171;-75
2024/01/02 01:04:08;;;;;;;2.17;0.80;;;;;;;;;;525310;28;1465;-75
2024/01/02 01:04:23;;;;;;;2.60;0.80;;;;;;;;;;524815;28;1479;-74
2024/01/02 01:04:43;;;;;;;2.60;0.80;;;;;;;;;;523557;28;1454;-75
2024/01/02 01:04:58;;;;;;;2.45;0.70;;;;;;;;;;525563;28;1496;-75
2024/01/02 01:05:13;;;;;;;2.77;0.70;;;;;;;;;;523777;28;1225;-75
2024/01/02 01:05:29;;;;;;;3.13;0.80;;;;;;;;;;524908;28;1513;-75
2024/01/02 01:05:44;;;;;;;2.70;0.83;;;;;;;;;;524761;28;1546;-74
2024/01/02 01:05:59;;;;;;;2.83;0.70;;;;;;;;;;524183;28;1564;-74
2024/01/02 01:06:14;;;;;;;2.73;0.70;;;;;;;;;;521507;28;1486;-76
2024/01/02 01:06:30;;;;;;;2.58;0.70;;;;;;;;;;521810;28;1529;-76
2024/01/02 01:06:45;;;;;;;2.93;0.70;;;;;;;;;;521469;28;1498;-75
2024/01/02 01:07:00;;;;;;;2.43;0.70;;;;;;;;;;520308;28;1598;-76
2024/01/02 01:07:16;;;;;;;2.20;0.70;;;;;;;;;;522820;28;1458;-75
2024/01/02 01:07:31;;;;;;;2.47;0.80;;;;;;;;;;519850;28;1907;-75
2024/01/02 01:07:46;;;;;;;2.43;0.90;;;;;;;;;;520650;28;2076;-75
2024/01/02 01:08:02;;;;;;;2.03;0.70;;;;;;;;;;520402;28;1500;-75
2024/01/02 01:08:17;;;;;;;2.40;0.80;;;;;;;;;;521689;28;1501;-76
2024/01/02 01:08:32;;;;;;;3.60;0.90;;;;;;;;;;524580;28;1345;-76
2024/01/02 01:08:48;;;;;;;4.03;0.90;;;;;;;;;;524652;28;1552;-76
2024/01/02 01:09:03;;;;;;;3.17;0.90;;;;;;;;;;522610;28;1463;-75
2024/01/02 01:09:19;;;;;;;2.60;0.77;;;;;;;;;;522662;28;1514;-75
2024/01/02 01:09:34;;;;;;;2.57;0.70;;;;;;;;;;522752;28;1316;-75
2024/01/02 01:09:49;;;;;;;2.20;0.67;;;;;;;;;;522428;28;1537;-75
2024/01/02 01:10:05;;;;;;;2.50;0.70;;;;;;;;;;522852;28;1480;-75
2024/01/02 01:10:20;;;;;;;2.63;0.80;;;;;;;;;;523943;28;1534;-75
2024/01/02 01:10:35;;;;;;;2.47;0.70;;;;;;;;;;524547;28;1561;-75
2024/01/02 01:10:50;;;;;;;2.92;0.70;;;;;;;;;;522499;28;1776;-75
2024/01/02 01:11:06;;;;;;;2.73;0.90;;;;;;;;;;524644;28;1379;-76
2024/01/02 01:11:21;;;;;;;2.60;0.80;;;;;;;;;;523653;28;1604;-76
2024/01/02 01:11:37;;;;;;;2.20;0.70;;;;;;;;;;524266;28;1572;-76
2024/01/02 01:11:52;;;;;;;1.87;0.60;;;;;;;;;;524918;28;1536;-76
2024/01/02 01:12:08;;;;;;;2.57;0.70;;;;;;;;;;521667;28;1477;-75
2024/01/02 01:12:23;;;;;;;3.33;0.77;;;;;;;;;;523455;28;1386;-75
2024/01/02 01:12:39;;;;;;;2.97;0.70;;;;;;;;;;523276;28;1596;-75
2024/01/02 01:12:54;;;;;;;2.15;0.60;;;;;;;;;;520003;28;1465;-75
2024/01/02 01:13:09;;;;;;;2.88;0.65;;;;;;;;;;521637;28;1553;-75
2024/01/02 01:13:25;;;;;;;2.93;0.70;;;;;;;;;;521758;28;1556;-75
2024/01/02 01:13:40;;;;;;;2.17;0.60;;;;;;;;;;521429;28;1550;-76
2024/01/02 01:13:55;;;;;;;3.05;0.60;;;;;;;;;;519153;28;1577;-76
2024/01/02 01:14:11;;;;;;;3.07;0.70;;;;;;;;;;519983;28;1534;-75
2024/01/02 01:14:26;;;;;;;1.93;0.63;;;;;;;;;;521881;28;1516;-76
2024/01/02 01:14:41;;;;;;;2.10;0.70;;;;;;;;;;521190;28;1561;-75
2024/01/02 01:14:56;;;;;;;2.63;0.70;;;;;;;;;;525162;28;1547;-77
2024/01/02 01:15:12;;;;;;;2.67;0.60;;;;;;;;;;523871;28;1500;-75
2024/01/02 01:15:27;;;;;;;2.50;0.50;;;;;;;;;;522828;28;1516;-75
2024/01/02 01:15:42;;;;;;;2.17;0.50;;;;;;;;;;523221;28;1120;-76
2024/01/02 01:15:58;;;;;;;3.00;0.60;;;;;;;;;;522212;28;1909;-75
2024/01/02 01:16:13;;;;;;;2.87;0.57;;;;;;;;;;522538;28;1817;-75
2024/01/02 01:16:28;;;;;;;1.90;0.50;;;;;;;;;;523006;28;1456;-75
2024/01/02 01:16:44;;;;;;;2.47;0.53;;;;;;;;;;521778;28;1917;-76
2024/01/02 01:16:59;;;;;;;3.00;0.70;;;;;;;;;;521445;28;1802;-75
2024/01/02 01:17:14;;;;;;;2.40;0.70;;;;;;;;;;521963;28;1620;-75
2024/01/02 01:17:30;;;;;;;1.97;0.67;;;;;;;;;;522237;28;1195;-75
2024/01/02 01:17:45;;;;;;;2.13;0.60;;;;;;;;;;523353;28;917;-75
2024/01/02 01:18:00;;;;;;;1.33;0.50;;;;;;;;;;522950;28;985;-75
2024/01/02 01:18:16;;;;;;;1.33;0.40;;;;;;;;;;522412;28;1053;-75
2024/01/02 01:18:31;;;;;;;2.27;0.50;;;;;;;;;;522644;28;1265;-76
2024/01/02 01:18:46;;;;;;;2.10;0.57;;;;;;;;;;525524;28;980;-75
2024/01/02 01:19:02;;;;;;;2.23;0.70;;;;;;;;;;524211;28;1098;-75
2024/01/02 01:19:17;;;;;;;2.47;0.70;;;;;;;;;;524584;28;1462;-76
2024/01/02 01:19:33;;;;;;;2.22;0.60;;;;;;;;;;524438;28;1314;-76
2024/01/02 01:19:48;;;;;;;2.25;0.70;;;;;;;;;;524262;28;1309;-75
2024/01/02 01:20:04;;;;;;;2.50;0.73;;;;;;;;;;521938;28;1272;-75
2024/01/02 01:20:19;;;;;;;2.60;0.70;;;;;;;;;;523413;28;881;-76
2024/01/02 01:20:34;;;;;;;2.80;0.80;;;;;;;;;;523188;28;968;-75
2024/01/02 01:20:50;;;;;;;2.97;0.90;;;;;;;;;;523438;28;858;-75
2024/01/02 01:21:05;;;;;;;3.47;0.90;;;;;;;;;;521010;28;1173;-75
2024/01/02 01:21:20;;;;;;;2.72;0.73;;;;;;;;;;519272;28;1186;-75
2024/01/02 01:21:35;;;;;;;1.30;0.60;;;;;;;;;;519032;28;1154;-75
2024/01/02 01:21:51;;;;;;;1.73;0.63;;;;;;;;;;518818;28;1036;-75
2024/01/02 01:22:06;;;;;;;2.58;0.70;;;;;;;;;;519560;28;914;-76
2024/01/02 01:22:21;;;;;;;2.67;0.70;;;;;;;;;;520723;28;1915;-75
2024/01/02 01:22:37;;;;;;;2.23;0.70;;;;;;;;;;518158;28;1828;-75
2024/01/02 01:22:52;;;;;;;2.13;0.70;;;;;;;;;;519216;28;835;-76
2024/01/02 01:23:08;;;;;;;2.80;0.70;;;;;;;;;;523376;28;758;-75
2024/01/02 01:23:23;;;;;;;3.07;0.70;;;;;;;;;;521692;28;847;-75
2024/01/02 01:23:38;;;;;;;3.17;0.75;;;;;;;;;;523182;28;941;-75
2024/01/02 01:23:54;;;;;;;4.10;0.90;;;;;;;;;;522204;28;1924;-75
2024/01/02 01:24:10;;;;;;;2.95;0.73;;;;;;;;;;522710;28;937;-75
2024/01/02 01:24:25;;;;;;;2.00;0.60;;;;;;;;;;519059;28;1184;-75
2024/01/02 01:24:40;;;;;;;3.10;0.77;;;;;;;;;;519249;28;905;-75
2024/01/02 01:24:55;;;;;;;2.80;0.87;;;;;;;;;;519130;28;768;-75
2024/01/02 01:25:11;;;;;;;2.07;0.80;;;;;;;;;;519163;28;1227;-74
2024/01/02 01:25:26;;;;;;;2.17;0.68;;;;;;;;;;519005;28;1050;-76
2024/01/02 01:25:41;;;;;;;2.37;0.77;;;;;;;;;;519191;28;902;-75
2024/01/02 01:25:57;;;;;;;1.80;0.73;;;;;;;;;;518614;28;1590;-75
2024/01/02 01:26:12;;;;;;;1.42;0.60;;;;;;;;;;517833;28;1744;-75
2024/01/02 01:26:28;;;;;;;2.33;0.70;;;;;;;;;;519537;28;799;-74
2024/01/02 01:26:43;;;;;;;2.50;0.75;;;;;;;;;;520369;28;1441;-75
2024/01/02 01:26:59;;;;;;;2.20;0.70;;;;;;;;;;521090;28;802;-76
2024/01/02 01:27:14;;;;;;;2.47;0.80;;;;;;;;;;523192;28;1284;-75
2024/01/02 01:27:29;;;;;;;2.67;0.80;;;;;;;;;;523395;28;909;-75
2024/01/02 01:27:45;;;;;;;2.80;0.87;;;;;;;;;;523662;28;766;-76
2024/01/02 01:28:00;;;;;;;2.47;0.82;;;;;;;;;;524570;28;1953;-75
2024/01/02 01:28:15;;;;;;;2.30;0.80;;;;;;;;;;524096;28;877;-76
2024/01/02 01:28:30;;;;;;;2.30;0.80;;;;;;;;;;525118;28;826;-76
2024/01/02 01:28:46;;;;;;;2.00;0.80;;;;;;;;;;523434;28;1048;-75
2024/01/02 01:29:02;;;;;;;1.73;0.70;;;;;;;;;;523231;28;1072;-75
2024/01/02 01:29:17;;;;;;;2.25;0.77;;;;;;;;;;523576;28;759;-75
2024/01/02 01:29:32;;;;;;;2.30;0.90;;;;;;;;;;523625;28;716;-75
2024/01/02 01:29:47;;;;;;;2.20;0.87;;;;;;;;;;523121;28;826;-75
2024/01/02 01:30:03;;;;;;;2.78;0.80;;;;;;;;;;523533;28;1052;-75
2024/01/02 01:30:18;;;;;;;2.77;0.87;;;;;;;;;;524441;28;1846;-75
2024/01/02 01:30:34;;;;;;;2.13;0.90;;;;;;;;;;524590;28;1107;-76
2024/01/02 01:30:49;;;;;;;1.83;0.80;;;;;;;;;;522879;28;802;-75
2024/01/02 01:31:04;;;;;;;2.07;0.80;;;;;;;;;;519052;28;1323;-75
2024/01/02 01:31:19;;;;;;;2.20;0.83;;;;;;;;;;519151;28;1141;-75
2024/01/02 01:31:35;;;;;;;3.25;0.90;;;;;;;;;;521304;28;934;-75
2024/01/02 01:31:50;;;;;;;3.07;0.90;;;;;;;;;;520213;28;1143;-75
2024/01/02 01:32:06;;;;;;;1.90;0.90;;;;;;;;;;519939;28;1122;-75
2024/01/02 01:32:21;;;;;;;2.20;0.80;;;;;;;;;;519566;28;802;-75
2024/01/02 01:32:37;;;;;;;2.47;0.80;;;;;;;;;;522897;28;823;-74
2024/01/02 01:32:52;;;;;;;2.80;0.90;;;;;;;;;;521234;28;885;-75
2024/01/02 01:33:09;;;;;;;3.10;0.90;;;;;;;;;;519450;28;1362;-75
2024/01/02 01:33:24;;;;;;;2.58;0.80;;;;;;;;;;523194;28;1006;-76
2024/01/02 01:33:39;;;;;;;2.10;0.77;;;;;;;;;;521289;28;1313;-76
2024/01/02 01:33:54;;;;;;;2.37;0.90;;;;;;;;;;518825;28;1354;-74
2024/01/02 01:34:10;;;;;;;2.50;0.93;;;;;;;;;;518246;28;1754;-74
2024/01/02 01:34:25;;;;;;;2.40;0.87;;;;;;;;;;519133;28;1696;-75
2024/01/02 01:34:41;;;;;;;2.77;0.87;;;;;;;;;;519129;28;1589;-75
2024/01/02 01:34:56;;;;;;;3.38;0.80;;;;;;;;;;519474;28;854;-75
2024/01/02 01:35:11;;;;;;;3.20;0.80;;;;;;;;;;520954;28;1220;-76
2024/01/02 01:35:26;;;;;;;3.03;0.90;;;;;;;;;;521136;28;1265;-75
2024/01/02 01:35:42;;;;;;;2.20;0.90;;;;;;;;;;519087;28;1275;-75